Time;durP1;ratioP1;P1;durP2;ratioP2;P2;SDS_P1;SDS_P2;PMS_P1;PMS_P2;Temp;Humidity;BMP_temperature;BMP_pressure;BME280_temperature;BME280_humidity;BME280_pressure;Samples;Min_cycle;Max_cycle;Signal;HPM_P1;HPM_P2
2023/10/01 00:00:28;;;;;;;9.00;4.30;;;;;;;19.79;47.74;99629.00;5014635;28;20205;-59
2023/10/01 00:02:56;;;;;;;5.73;4.53;;;;;;;19.80;48.09;99627.91;5014091;28;20627;-60
2023/10/01 00:05:24;;;;;;;10.10;4.43;;;;;;;19.86;47.75;99622.34;5014485;28;20221;-60
2023/10/01 00:07:51;;;;;;;8.27;4.93;;;;;;;19.93;47.76;99622.16;5015057;28;20198;-60
2023/10/01 00:10:19;;;;;;;7.27;4.33;;;;;;;20.00;47.67;99623.59;5014250;28;20554;-59
2023/10/01 00:12:47;;;;;;;4.37;4.07;;;;;;;20.01;47.69;99621.72;5012755;28;20226;-60
2023/10/01 00:15:17;;;;;;;7.63;4.40;;;;;;;20.11;47.74;99619.13;5012835;28;20214;-60
2023/10/01 00:17:46;;;;;;;7.27;4.23;;;;;;;20.17;47.35;99612.72;5013355;28;20244;-60
2023/10/01 00:20:18;;;;;;;4.87;4.03;;;;;;;20.21;47.45;99609.25;5023339;28;20724;-61
2023/10/01 00:22:46;;;;;;;8.90;4.23;;;;;;;20.24;47.20;99607.94;5033123;28;20514;-60
2023/10/01 00:25:12;;;;;;;6.07;4.70;;;;;;;20.17;46.93;99612.72;5033105;28;20259;-60
2023/10/01 00:27:39;;;;;;;4.60;4.00;;;;;;;20.17;47.03;99610.03;5033251;28;20251;-60
2023/10/01 00:30:09;;;;;;;8.97;4.60;;;;;;;19.98;47.64;99597.94;5032657;28;20244;-59
2023/10/01 00:32:38;;;;;;;11.37;4.73;;;;;;;20.06;47.43;99610.97;5032950;28;20198;-59
2023/10/01 00:35:06;;;;;;;6.33;4.17;;;;;;;20.02;47.42;99605.25;5032775;28;20201;-60
2023/10/01 00:37:33;;;;;;;5.70;4.33;;;;;;;19.97;47.41;99607.13;5032467;28;20657;-59
2023/10/01 00:40:00;;;;;;;5.63;4.40;;;;;;;20.01;47.28;99606.31;5032562;28;20197;-59
2023/10/01 00:42:28;;;;;;;10.57;4.27;;;;;;;20.06;47.16;99608.28;5032599;28;20328;-59
2023/10/01 00:44:56;;;;;;;6.43;4.03;;;;;;;20.09;47.32;99603.22;5032324;28;20562;-59
2023/10/01 00:47:23;;;;;;;6.57;4.00;;;;;;;20.12;47.01;99607.28;5032583;28;20197;-59
2023/10/01 00:49:52;;;;;;;6.57;4.00;;;;;;;20.17;46.93;99607.31;5031212;28;20197;-59
2023/10/01 00:52:20;;;;;;;9.50;4.87;;;;;;;20.18;46.94;99604.38;5032855;28;20193;-59
2023/10/01 00:54:47;;;;;;;10.43;3.83;;;;;;;20.30;46.39;99599.63;5033526;28;20197;-59
2023/10/01 00:57:15;;;;;;;10.10;4.00;;;;;;;20.38;46.52;99603.78;5033186;28;20224;-59
2023/10/01 00:59:43;;;;;;;4.30;4.00;;;;;;;20.32;46.55;99599.38;5033035;28;20189;-59
2023/10/01 01:02:15;;;;;;;5.50;4.03;;;;;;;20.40;46.34;99602.44;5033467;28;20197;-59
2023/10/01 01:04:45;;;;;;;9.47;4.13;;;;;;;20.45;46.37;99599.78;5033091;28;20197;-59
2023/10/01 01:07:15;;;;;;;4.87;3.90;;;;;;;20.58;46.21;99592.31;5032503;28;20221;-59
2023/10/01 01:09:42;;;;;;;4.93;4.20;;;;;;;20.56;46.28;99600.66;5032736;28;20188;-59
2023/10/01 01:12:09;;;;;;;8.07;4.30;;;;;;;20.71;45.89;99600.81;5021359;28;20562;-59
2023/10/01 01:14:36;;;;;;;7.67;4.20;;;;;;;20.86;45.57;99594.69;5013018;28;20182;-60
2023/10/01 01:17:03;;;;;;;11.07;4.47;;;;;;;20.83;45.43;99601.44;5012714;28;20252;-59
2023/10/01 01:19:33;;;;;;;8.03;4.47;;;;;;;20.77;45.64;99597.06;5012950;28;20197;-59
2023/10/01 01:22:01;;;;;;;8.47;4.50;;;;;;;20.86;45.44;99597.41;5012640;28;20760;-59
2023/10/01 01:24:29;;;;;;;4.90;4.27;;;;;;;20.90;45.11;99590.41;5012558;28;20707;-59
2023/10/01 01:27:00;;;;;;;4.73;4.33;;;;;;;20.89;45.06;99589.56;5012277;28;20726;-59
2023/10/01 01:29:33;;;;;;;4.20;3.90;;;;;;;20.86;45.34;99590.09;5012546;28;20650;-59
2023/10/01 01:32:07;;;;;;;5.10;3.63;;;;;;;20.83;45.21;99585.22;5012838;28;20190;-59
2023/10/01 01:34:35;;;;;;;6.17;4.20;;;;;;;20.68;45.49;99582.41;5012441;28;20192;-59
2023/10/01 01:37:05;;;;;;;7.23;3.80;;;;;;;20.63;45.60;99590.47;5012680;28;20202;-59
2023/10/01 01:39:45;;;;;;;9.53;3.47;;;;;;;20.53;46.05;99595.78;5012170;28;20190;-60
2023/10/01 01:42:12;;;;;;;5.00;3.97;;;;;;;20.44;45.99;99589.22;5012072;28;20186;-60
2023/10/01 01:44:39;;;;;;;6.30;4.10;;;;;;;20.34;46.67;99589.16;5012482;28;20252;-59
2023/10/01 01:47:07;;;;;;;8.17;3.90;;;;;;;20.22;47.05;99588.50;5011780;28;20226;-60
2023/10/01 01:49:34;;;;;;;6.90;4.20;;;;;;;20.26;47.05;99587.72;5012163;28;20201;-60
2023/10/01 01:52:03;;;;;;;3.93;3.70;;;;;;;20.22;47.23;99583.13;5012093;28;20206;-59
2023/10/01 01:54:32;;;;;;;10.17;4.13;;;;;;;20.12;47.65;99583.00;5012098;28;20670;-60
2023/10/01 01:57:00;;;;;;;14.43;4.27;;;;;;;20.11;47.49;99581.38;5012246;28;20252;-59
2023/10/01 01:59:28;;;;;;;6.30;3.73;;;;;;;20.07;47.27;99570.28;5012303;28;20194;-60
2023/10/01 02:01:56;;;;;;;6.67;3.97;;;;;;;20.11;47.62;99586.78;5011387;28;20194;-60
2023/10/01 02:04:23;;;;;;;5.73;4.13;;;;;;;20.05;47.71;99588.56;5011596;28;20194;-59
2023/10/01 02:06:52;;;;;;;5.10;4.20;;;;;;;20.10;47.63;99593.25;5011823;28;20321;-60
2023/10/01 02:09:20;;;;;;;7.83;3.80;;;;;;;20.19;47.34;99594.41;5012573;28;20578;-59
2023/10/01 02:11:48;;;;;;;7.90;4.83;;;;;;;20.20;47.39;99596.03;5011749;28;20285;-60
2023/10/01 02:14:31;;;;;;;4.37;3.97;;;;;;;20.23;47.33;99598.22;5012282;28;20233;-60
2023/10/01 02:17:13;;;;;;;6.93;4.03;;;;;;;20.14;47.70;99595.16;5012085;28;20190;-60
2023/10/01 02:19:40;;;;;;;4.83;4.43;;;;;;;20.20;47.34;99596.03;5017740;28;20563;-60
2023/10/01 02:22:11;;;;;;;7.00;4.00;;;;;;;20.24;47.61;99586.34;5031833;28;20230;-60
2023/10/01 02:24:54;;;;;;;9.80;4.20;;;;;;;20.27;47.40;99588.56;5031461;28;20181;-60
2023/10/01 02:27:24;;;;;;;6.70;3.83;;;;;;;20.42;46.80;99588.69;5031549;28;20208;-60
2023/10/01 02:32:49;;;;;;;5.00;4.50;;;;;;;20.38;46.94;99587.56;5011201;28;20217;-60
2023/10/01 02:37:58;;;;;;;10.37;4.40;;;;;;;20.27;47.66;99585.84;5011072;28;20259;-60
2023/10/01 02:40:24;;;;;;;4.67;4.20;;;;;;;20.23;47.52;99584.72;5011644;28;20701;-60
2023/10/01 02:42:50;;;;;;;8.03;4.30;;;;;;;20.28;47.41;99573.97;5011260;28;20209;-59
2023/10/01 02:45:32;;;;;;;7.13;4.57;;;;;;;20.24;47.74;99575.56;5011514;28;20223;-59
2023/10/01 02:48:17;;;;;;;7.60;4.27;;;;;;;20.27;47.65;99570.50;5011049;28;20186;-60
2023/10/01 02:50:45;;;;;;;4.83;4.40;;;;;;;20.28;47.60;99571.28;5011330;28;20618;-60
2023/10/01 02:53:13;;;;;;;9.00;4.17;;;;;;;20.24;47.91;99564.78;5011487;28;20190;-59
2023/10/01 02:55:44;;;;;;;5.00;4.00;;;;;;;20.30;47.81;99579.94;5011682;28;20190;-60
2023/10/01 02:58:19;;;;;;;6.97;4.33;;;;;;;20.27;48.13;99564.28;5011542;28;20264;-60
2023/10/01 03:00:50;;;;;;;5.37;4.10;;;;;;;20.32;47.86;99567.81;5011806;28;20229;-60
2023/10/01 03:03:18;;;;;;;9.30;4.40;;;;;;;20.31;47.66;99568.88;5011200;28;20236;-59
2023/10/01 03:05:46;;;;;;;4.73;3.90;;;;;;;20.31;47.82;99568.09;5013899;28;20221;-60
2023/10/01 03:08:41;;;;;;;4.20;3.97;;;;;;;20.35;47.76;99569.19;5019300;28;20590;-59
2023/10/01 03:11:11;;;;;;;7.13;4.17;;;;;;;20.35;47.74;99571.91;5021193;28;20182;-60
2023/10/01 03:13:38;;;;;;;10.00;3.73;;;;;;;20.38;47.71;99571.38;5019925;28;20225;-60
2023/10/01 03:18:54;;;;;;;4.03;3.83;;;;;;;20.50;47.65;99566.63;5023405;28;20271;-60
2023/10/01 03:22:08;;;;;;;9.40;4.77;;;;;;;20.47;47.61;99569.84;5024590;28;20178;-60
2023/10/01 03:24:09;;;;;;;15.03;4.10;;;;;;;20.52;47.54;99569.88;5023429;28;20194;-60
2023/10/01 03:26:43;;;;;;;8.13;4.50;;;;;;;20.42;47.34;99567.09;5025173;28;20217;-60
2023/10/01 03:29:21;;;;;;;4.57;4.17;;;;;;;20.40;47.83;99571.94;5025014;28;20665;-60
2023/10/01 03:31:53;;;;;;;5.30;4.13;;;;;;;20.41;47.62;99573.56;5023919;28;20186;-59
2023/10/01 03:34:29;;;;;;;6.90;4.07;;;;;;;20.51;47.33;99570.94;5021614;28;20248;-60
2023/10/01 03:36:58;;;;;;;6.50;4.13;;;;;;;20.41;47.50;99560.06;5022721;28;20182;-60
2023/10/01 03:39:26;;;;;;;6.33;4.03;;;;;;;20.56;47.28;99579.09;5023801;28;20220;-59
2023/10/01 03:41:54;;;;;;;4.77;4.33;;;;;;;20.53;47.29;99580.41;5025076;28;20220;-60
2023/10/01 03:44:58;;;;;;;4.47;4.13;;;;;;;20.55;47.45;99582.84;5023664;28;20562;-60
2023/10/01 03:47:09;;;;;;;4.63;3.97;;;;;;;20.52;47.47;99580.66;5023365;28;20232;-60
2023/10/01 03:49:40;;;;;;;5.97;3.67;;;;;;;20.51;47.27;99584.44;5022977;28;20193;-60
2023/10/01 03:52:09;;;;;;;4.83;3.87;;;;;;;20.58;47.16;99588.53;5023220;28;20185;-60
2023/10/01 03:57:17;;;;;;;5.50;4.30;;;;;;;20.53;47.41;99588.50;5013515;28;20198;-60
2023/10/01 03:59:51;;;;;;;8.40;4.27;;;;;;;20.59;47.19;99589.38;5014044;28;20673;-59
2023/10/01 04:02:42;;;;;;;9.23;4.80;;;;;;;20.50;47.31;99585.53;5020445;28;20182;-60
2023/10/01 04:05:21;;;;;;;5.03;3.90;;;;;;;20.50;47.40;99586.31;5024205;28;20185;-60
2023/10/01 04:07:48;;;;;;;4.33;3.90;;;;;;;20.47;47.37;99586.03;5023375;28;20747;-60
2023/10/01 04:10:21;;;;;;;4.10;3.80;;;;;;;20.55;46.99;99585.56;5024444;28;20201;-60
2023/10/01 04:12:50;;;;;;;10.77;3.73;;;;;;;20.57;46.96;99591.50;5023856;28;20272;-60
2023/10/01 04:15:27;;;;;;;11.70;4.37;;;;;;;20.57;47.06;99588.78;5022839;28;20193;-60
2023/10/01 04:23:33;;;;;;;7.07;4.70;;;;;;;20.61;47.00;99598.00;5087451;28;20195;-60
2023/10/01 04:26:04;;;;;;;6.00;4.33;;;;;;;20.60;47.00;99596.38;5088491;28;20191;-60
2023/10/01 04:28:31;;;;;;;16.97;4.53;;;;;;;20.61;46.99;99603.41;5088534;28;20308;-61
2023/10/01 04:30:58;;;;;;;7.23;4.30;;;;;;;20.70;46.82;99612.66;5088263;28;20237;-60
2023/10/01 04:33:24;;;;;;;7.10;4.07;;;;;;;20.75;46.46;99610.00;5087878;28;20195;-60
2023/10/01 04:35:55;;;;;;;8.57;4.30;;;;;;;20.86;46.15;99616.28;5090904;28;20237;-60
2023/10/01 04:38:26;;;;;;;8.70;4.37;;;;;;;20.80;46.46;99612.75;5098451;28;20182;-60
2023/10/01 04:40:53;;;;;;;6.27;3.93;;;;;;;20.87;46.24;99621.44;5098200;28;20186;-60
2023/10/01 04:43:20;;;;;;;8.30;4.87;;;;;;;20.89;46.16;99616.59;5096622;28;20188;-60
2023/10/01 04:45:52;;;;;;;8.10;4.57;;;;;;;21.01;45.78;99617.25;5093840;28;20191;-59
2023/10/01 04:48:22;;;;;;;7.50;4.47;;;;;;;21.05;45.73;99615.63;5096622;28;20646;-60
2023/10/01 04:50:50;;;;;;;5.93;4.30;;;;;;;21.14;45.38;99624.09;5097331;28;20718;-60
2023/10/01 04:53:20;;;;;;;5.07;4.57;;;;;;;21.13;45.43;99623.25;5097776;28;20218;-60
2023/10/01 04:55:57;;;;;;;7.00;4.67;;;;;;;21.32;44.96;99632.56;5095424;28;20740;-60
2023/10/01 04:58:26;;;;;;;9.63;4.10;;;;;;;21.62;44.11;99635.41;5096099;28;20578;-60
2023/10/01 05:00:55;;;;;;;4.67;4.23;;;;;;;21.81;43.44;99624.97;5096172;28;20221;-61
2023/10/01 05:03:36;;;;;;;8.00;4.33;;;;;;;22.14;42.46;99641.59;5093626;28;20199;-60
2023/10/01 05:06:03;;;;;;;10.93;4.27;;;;;;;22.32;42.04;99645.66;5101899;28;20187;-61
2023/10/01 05:08:38;;;;;;;12.73;4.40;;;;;;;22.57;41.52;99651.94;5107456;28;20649;-61
2023/10/01 05:11:05;;;;;;;8.73;4.63;;;;;;;22.76;41.11;99653.06;5098458;28;20194;-61
2023/10/01 05:13:34;;;;;;;4.80;4.40;;;;;;;23.02;40.51;99653.81;5087852;28;20294;-61
2023/10/01 05:16:06;;;;;;;4.83;4.30;;;;;;;23.26;39.98;99657.63;5086967;28;20251;-61
2023/10/01 05:18:33;;;;;;;4.73;3.90;;;;;;;23.50;39.36;99655.94;5086189;28;20668;-61
2023/10/01 05:21:04;;;;;;;5.20;4.10;;;;;;;23.83;38.91;99666.94;5103601;28;20249;-61
2023/10/01 05:23:32;;;;;;;5.27;3.87;;;;;;;24.03;38.50;99668.78;5100105;28;20208;-61
2023/10/01 05:25:59;;;;;;;6.43;3.97;;;;;;;24.22;37.91;99665.16;5086012;28;20211;-62
2023/10/01 05:28:34;;;;;;;5.97;4.07;;;;;;;24.57;37.56;99670.38;5084756;28;20247;-61
2023/10/01 05:31:05;;;;;;;3.90;3.63;;;;;;;24.94;36.70;99673.34;5076267;28;20290;-61
2023/10/01 05:33:33;;;;;;;7.03;3.93;;;;;;;25.23;36.09;99675.28;5070637;28;20192;-60
2023/10/01 05:36:04;;;;;;;5.83;3.87;;;;;;;25.36;35.73;99677.34;5069977;28;20653;-60
2023/10/01 05:38:35;;;;;;;8.10;3.97;;;;;;;25.56;35.18;99682.59;5069997;28;20184;-61
2023/10/01 05:41:03;;;;;;;4.00;3.70;;;;;;;25.72;35.06;99679.38;5069107;28;20208;-63
2023/10/01 05:43:35;;;;;;;6.53;4.23;;;;;;;25.67;35.09;99670.47;5069596;28;20192;-64
2023/10/01 05:46:08;;;;;;;11.13;3.87;;;;;;;26.00;34.95;99680.47;5069956;28;20231;-61
2023/10/01 05:48:35;;;;;;;11.93;4.67;;;;;;;26.11;34.17;99677.31;5070080;28;20216;-61
2023/10/01 05:51:03;;;;;;;12.40;4.60;;;;;;;26.22;33.66;99684.25;5067914;28;20199;-62
2023/10/01 05:53:32;;;;;;;4.73;4.37;;;;;;;26.27;34.04;99676.00;5069617;28;20206;-62
2023/10/01 05:56:06;;;;;;;14.57;4.43;;;;;;;25.73;34.41;99680.19;5073665;28;20191;-60
2023/10/01 05:58:33;;;;;;;4.93;4.50;;;;;;;25.39;34.99;99679.50;5089574;28;20607;-62
2023/10/01 06:01:05;;;;;;;5.13;4.20;;;;;;;25.24;35.07;99677.72;5088396;28;20219;-62
2023/10/01 06:03:33;;;;;;;13.47;4.60;;;;;;;24.78;36.08;99677.28;5088927;28;20227;-61
2023/10/01 06:06:08;;;;;;;5.20;4.70;;;;;;;24.74;36.88;99676.22;5091180;28;20240;-62
2023/10/01 06:08:46;;;;;;;5.23;3.90;;;;;;;24.77;37.09;99683.84;5091799;28;20199;-61
2023/10/01 06:11:15;;;;;;;6.20;4.10;;;;;;;24.46;36.55;99674.22;5091828;28;20274;-62
2023/10/01 06:13:48;;;;;;;5.40;4.50;;;;;;;24.49;36.71;99687.25;5091754;28;20226;-61
2023/10/01 06:16:15;;;;;;;13.87;5.07;;;;;;;24.27;37.41;99683.31;5091797;28;20190;-61
2023/10/01 06:18:49;;;;;;;81.37;9.90;;;;;;;24.21;37.55;99687.97;5091199;28;20235;-61
2023/10/01 06:21:18;;;;;;;4.20;3.90;;;;;;;24.21;37.94;99684.41;5072148;28;20290;-61
2023/10/01 06:23:52;;;;;;;6.90;4.43;;;;;;;24.16;38.03;99689.88;5073581;28;20276;-62
2023/10/01 06:26:20;;;;;;;7.03;4.10;;;;;;;24.14;37.85;99695.59;5081989;28;20707;-61
2023/10/01 06:28:47;;;;;;;4.30;4.00;;;;;;;23.98;38.07;99696.75;5072847;28;20238;-64
2023/10/01 06:31:16;;;;;;;4.33;4.03;;;;;;;24.13;37.82;99699.41;5079927;28;20678;-64
2023/10/01 06:33:44;;;;;;;5.70;3.90;;;;;;;24.05;38.03;99701.91;5076311;28;20662;-64
2023/10/01 06:36:19;;;;;;;3.93;3.63;;;;;;;23.80;38.16;99702.78;5070189;28;20807;-66
2023/10/01 06:38:49;;;;;;;5.00;4.07;;;;;;;23.64;38.98;99698.47;5070235;28;20193;-68
2023/10/01 06:41:19;;;;;;;9.67;4.43;;;;;;;23.62;39.53;99707.97;5070684;28;20760;-67
2023/10/01 06:43:54;;;;;;;12.47;5.13;;;;;;;23.27;41.11;99710.78;5089216;28;20225;-65
2023/10/01 06:46:23;;;;;;;10.50;5.03;;;;;;;23.19;42.31;99709.38;5077850;28;20703;-70
2023/10/01 06:48:51;;;;;;;8.77;3.87;;;;;;;23.13;42.68;99709.66;5078072;28;20651;-64
2023/10/01 06:51:21;;;;;;;36.73;6.20;;;;;;;23.10;42.97;99713.72;5076779;28;20290;-67
2023/10/01 06:53:53;;;;;;;4.97;4.53;;;;;;;23.05;42.81;99723.75;5077952;28;20613;-72
2023/10/01 06:56:21;;;;;;;7.50;4.97;;;;;;;23.02;43.10;99719.69;5067496;28;20247;-67
2023/10/01 07:01:42;;;;;;;12.50;4.67;;;;;;;22.91;42.13;99719.97;5072027;28;20256;-65
2023/10/01 07:04:09;;;;;;;6.43;4.33;;;;;;;22.84;42.23;99728.38;5077420;28;20269;-66
2023/10/01 07:06:37;;;;;;;7.97;4.77;;;;;;;22.80;42.18;99727.28;5074002;28;20196;-69
2023/10/01 07:09:22;;;;;;;9.83;4.83;;;;;;;22.70;41.71;99727.25;5075847;28;20188;-66
2023/10/01 07:11:50;;;;;;;4.73;4.33;;;;;;;22.74;41.83;99727.53;5074080;28;20606;-71
2023/10/01 07:14:18;;;;;;;4.80;4.37;;;;;;;22.75;41.58;99723.75;5083219;28;20909;-65
2023/10/01 07:16:45;;;;;;;10.63;4.47;;;;;;;22.73;41.77;99726.72;5087278;28;20273;-66
2023/10/01 07:19:12;;;;;;;10.47;4.70;;;;;;;22.65;41.91;99729.94;5083795;28;20811;-68
2023/10/01 07:21:41;;;;;;;6.60;4.30;;;;;;;22.71;41.47;99726.16;5082369;28;20309;-67
2023/10/01 07:24:11;;;;;;;11.33;4.80;;;;;;;22.74;41.45;99741.88;5076619;28;20197;-66
2023/10/01 07:26:40;;;;;;;10.40;4.60;;;;;;;22.79;41.65;99735.66;5076042;28;20753;-67
2023/10/01 07:29:07;;;;;;;8.97;4.43;;;;;;;22.87;41.29;99737.84;5075835;28;20729;-68
2023/10/01 07:31:35;;;;;;;9.17;4.50;;;;;;;22.92;41.50;99741.38;5077873;28;20274;-66
2023/10/01 07:34:12;;;;;;;7.03;4.40;;;;;;;22.95;41.62;99734.59;5070862;28;20192;-69
2023/10/01 07:36:39;;;;;;;5.03;4.00;;;;;;;22.91;41.65;99747.06;5074514;28;20200;-67
2023/10/01 07:39:06;;;;;;;4.77;4.27;;;;;;;22.91;41.78;99742.44;5076487;28;20190;-64
2023/10/01 07:41:38;;;;;;;11.17;4.43;;;;;;;22.91;41.77;99750.56;5074947;28;20219;-67
2023/10/01 07:44:08;;;;;;;6.57;4.73;;;;;;;22.92;41.57;99754.09;5075003;28;20687;-65
2023/10/01 07:46:36;;;;;;;6.87;4.50;;;;;;;22.97;41.80;99749.50;5076040;28;20686;-68
2023/10/01 07:49:03;;;;;;;9.23;4.27;;;;;;;22.86;41.40;99747.03;5072816;28;20201;-74
2023/10/01 07:51:35;;;;;;;7.67;5.00;;;;;;;23.13;41.71;99756.56;5073419;28;20197;-70
2023/10/01 07:54:09;;;;;;;5.77;4.77;;;;;;;23.19;41.48;99762.78;5072444;28;20280;-67
2023/10/01 07:56:48;;;;;;;8.27;5.00;;;;;;;23.33;41.39;99764.72;5073391;28;20201;-66
2023/10/01 07:59:28;;;;;;;8.37;4.80;;;;;;;23.25;40.62;99764.44;5080855;28;20303;-65
2023/10/01 08:02:09;;;;;;;42.87;7.07;;;;;;;23.30;40.72;99759.84;5074099;28;20213;-64
2023/10/01 08:07:22;;;;;;;5.87;3.73;;;;;;;23.31;40.91;99761.44;5074155;28;20189;-68
2023/10/01 08:09:51;;;;;;;4.80;4.27;;;;;;;23.44;40.65;99771.75;5073908;28;20205;-66
2023/10/01 08:12:28;;;;;;;10.73;4.33;;;;;;;23.41;40.37;99766.88;5073706;28;20744;-65
2023/10/01 08:17:36;;;;;;;4.43;4.03;;;;;;;23.79;40.05;99777.13;5069279;28;20684;-67
2023/10/01 08:20:15;;;;;;;8.53;4.53;;;;;;;24.06;39.28;99768.66;5080480;28;20233;-65
2023/10/01 08:23:09;;;;;;;5.73;4.30;;;;;;;24.18;39.41;99778.09;5064642;28;20194;-66
2023/10/01 08:25:32;;;;;;;8.50;4.30;;;;;;;24.33;39.02;99764.47;5077865;28;20189;-65
2023/10/01 08:28:26;;;;;;;6.07;4.57;;;;;;;24.23;38.93;99772.69;5079082;28;20191;-65
2023/10/01 08:31:43;;;;;;;7.90;4.50;;;;;;;24.41;39.13;99774.75;5078663;28;20247;-67
2023/10/01 08:33:51;;;;;;;4.40;4.00;;;;;;;24.54;38.51;99779.56;5079436;28;20646;-65
2023/10/01 08:36:24;;;;;;;5.73;4.53;;;;;;;24.47;38.69;99770.91;5078634;28;20192;-67
2023/10/01 08:39:20;;;;;;;4.50;4.10;;;;;;;24.49;38.84;99773.34;5075759;28;20256;-66
2023/10/01 08:41:50;;;;;;;10.87;4.93;;;;;;;24.54;38.84;99771.44;5076832;28;20226;-63
2023/10/01 08:44:30;;;;;;;8.67;4.90;;;;;;;24.44;38.80;99776.94;5072306;28;20206;-65
2023/10/01 08:47:01;;;;;;;5.17;4.67;;;;;;;24.45;39.08;99773.09;5068966;28;20642;-66
2023/10/01 08:49:32;;;;;;;12.73;5.07;;;;;;;24.66;39.17;99779.25;5068574;28;20559;-66
2023/10/01 08:54:44;;;;;;;8.70;5.30;;;;;;;24.70;38.73;99778.44;5068478;28;20207;-64
2023/10/01 08:57:17;;;;;;;5.37;4.37;;;;;;;24.77;38.23;99776.22;5068751;28;20690;-64
2023/10/01 08:59:45;;;;;;;14.37;4.60;;;;;;;24.84;38.18;99779.41;5069196;28;20268;-64
2023/10/01 09:02:19;;;;;;;4.37;4.03;;;;;;;24.98;37.79;99776.09;5068394;28;20203;-64
2023/10/01 09:04:48;;;;;;;8.00;4.80;;;;;;;25.06;38.05;99780.94;5068914;28;20180;-66
2023/10/01 09:07:24;;;;;;;12.83;5.17;;;;;;;25.08;37.62;99765.13;5071390;28;20249;-65
2023/10/01 09:10:07;;;;;;;7.00;4.30;;;;;;;25.21;37.55;99772.63;5073020;28;20193;-67
2023/10/01 09:12:35;;;;;;;6.63;5.23;;;;;;;25.25;37.16;99768.25;5074534;28;20238;-66
2023/10/01 09:15:05;;;;;;;19.60;5.57;;;;;;;25.32;37.77;99768.78;5091807;28;20619;-65
2023/10/01 09:17:56;;;;;;;10.40;5.07;;;;;;;25.38;37.63;99765.72;5090789;28;20275;-66
2023/10/01 09:20:37;;;;;;;8.17;4.70;;;;;;;25.44;37.38;99758.34;5072888;28;20340;-65
2023/10/01 09:23:05;;;;;;;4.67;4.23;;;;;;;25.54;36.90;99766.38;5072677;28;20188;-65
2023/10/01 09:25:34;;;;;;;16.13;4.90;;;;;;;25.54;36.57;99752.78;5071952;28;20648;-64
2023/10/01 09:28:04;;;;;;;5.20;4.70;;;;;;;25.73;36.99;99767.28;5062441;28;20207;-67
2023/10/01 09:30:36;;;;;;;13.63;4.73;;;;;;;26.04;36.28;99763.19;5075761;28;20190;-65
2023/10/01 09:33:14;;;;;;;6.10;4.73;;;;;;;26.23;35.80;99762.13;5072870;28;20234;-67
2023/10/01 09:35:42;;;;;;;10.70;4.37;;;;;;;26.38;35.27;99763.84;5071751;28;20254;-68
2023/10/01 09:38:11;;;;;;;5.47;4.70;;;;;;;26.34;35.69;99762.81;5071535;28;20262;-68
2023/10/01 09:40:41;;;;;;;5.10;4.60;;;;;;;26.57;35.19;99761.94;5063987;28;20227;-68
2023/10/01 09:43:18;;;;;;;7.90;4.60;;;;;;;26.80;34.68;99755.63;5074001;28;20188;-70
2023/10/01 09:45:47;;;;;;;10.57;4.73;;;;;;;27.01;33.75;99762.41;5081024;28;20640;-68
2023/10/01 09:48:30;;;;;;;6.97;4.73;;;;;;;27.05;34.15;99763.44;5086699;28;20219;-67
2023/10/01 09:51:08;;;;;;;7.77;4.70;;;;;;;26.97;34.33;99759.47;5073122;28;20364;-68
2023/10/01 09:53:54;;;;;;;13.50;4.70;;;;;;;27.09;33.62;99764.47;5072256;28;20556;-66
2023/10/01 09:56:29;;;;;;;9.13;4.83;;;;;;;26.76;33.82;99749.16;5073034;28;20698;-66
2023/10/01 09:59:01;;;;;;;5.27;4.67;;;;;;;26.58;34.50;99758.16;5070137;28;20227;-64
2023/10/01 10:01:31;;;;;;;5.70;4.07;;;;;;;26.63;34.42;99748.00;5077791;28;20204;-68
2023/10/01 10:04:01;;;;;;;5.30;4.80;;;;;;;26.81;34.76;99740.91;5071443;28;20512;-69
2023/10/01 10:06:29;;;;;;;8.83;4.73;;;;;;;26.98;33.97;99757.53;5072306;28;20187;-69
2023/10/01 10:09:06;;;;;;;9.37;4.83;;;;;;;27.03;34.53;99752.81;5069919;28;20291;-68
2023/10/01 10:11:37;;;;;;;5.40;4.87;;;;;;;27.12;34.89;99747.50;5070906;28;20219;-69
2023/10/01 10:14:56;;;;;;;6.87;4.63;;;;;;;27.07;34.36;99745.66;5071003;28;20215;-69
2023/10/01 10:17:25;;;;;;;5.90;5.17;;;;;;;26.85;34.42;99741.94;5070240;28;20188;-73
2023/10/01 10:20:00;;;;;;;6.93;4.57;;;;;;;26.77;34.21;99737.13;5069169;28;20224;-71
2023/10/01 10:22:32;;;;;;;33.23;6.30;;;;;;;26.92;34.75;99737.75;5068440;28;20221;-73
2023/10/01 10:25:22;;;;;;;5.33;4.60;;;;;;;26.84;34.13;99737.59;5069099;28;20187;-71
2023/10/01 10:27:50;;;;;;;5.03;4.30;;;;;;;26.81;34.57;99746.34;5066804;28;20207;-70
2023/10/01 10:30:17;;;;;;;10.03;5.10;;;;;;;26.98;34.25;99738.44;5065256;28;20294;-69
2023/10/01 10:33:17;;;;;;;5.57;5.07;;;;;;;27.19;34.00;99731.56;5065384;28;20196;-74
2023/10/01 10:35:48;;;;;;;8.03;4.77;;;;;;;27.39;33.47;99731.22;5043362;28;20197;-71
2023/10/01 10:38:52;;;;;;;6.17;4.60;;;;;;;27.39;32.82;99726.59;5048370;28;20189;-71
2023/10/01 10:41:19;;;;;;;6.03;5.13;;;;;;;27.66;33.26;99725.81;5066255;28;20697;-68
2023/10/01 10:44:07;;;;;;;6.40;5.10;;;;;;;27.91;32.24;99722.63;5064862;28;20298;-71
2023/10/01 10:47:03;;;;;;;6.43;4.57;;;;;;;27.94;32.35;99722.03;5068391;28;20202;-75
2023/10/01 10:49:51;;;;;;;8.77;5.20;;;;;;;27.98;32.09;99718.38;5064803;28;20180;-75
2023/10/01 10:52:31;;;;;;;5.20;4.90;;;;;;;28.19;31.62;99718.78;5071921;28;20254;-70
2023/10/01 10:55:15;;;;;;;11.30;4.97;;;;;;;28.06;32.38;99681.34;5065754;28;20187;-74
2023/10/01 10:57:48;;;;;;;6.97;4.80;;;;;;;28.23;31.30;99714.31;5067557;28;20612;-67
2023/10/01 11:00:24;;;;;;;5.00;4.60;;;;;;;27.70;31.35;99697.63;5067062;28;20194;-68
2023/10/01 11:02:56;;;;;;;6.73;4.63;;;;;;;27.68;31.14;99715.44;5068395;28;20195;-68
2023/10/01 11:05:24;;;;;;;9.83;4.40;;;;;;;27.48;31.29;99707.63;5065166;28;20181;-67
2023/10/01 11:07:58;;;;;;;5.10;4.70;;;;;;;27.43;31.42;99711.25;5068911;28;20261;-69
2023/10/01 11:10:27;;;;;;;6.17;4.53;;;;;;;27.62;30.87;99702.97;5067097;28;20200;-68
2023/10/01 11:12:54;;;;;;;5.57;5.07;;;;;;;27.86;31.14;99698.16;5067532;28;20293;-70
2023/10/01 11:15:23;;;;;;;4.57;4.27;;;;;;;27.97;30.41;99691.38;5066625;28;20729;-69
2023/10/01 11:17:59;;;;;;;5.00;4.10;;;;;;;28.19;29.91;99695.00;5066695;28;20567;-70
2023/10/01 11:20:32;;;;;;;6.57;3.70;;;;;;;28.48;30.20;99692.75;5069275;28;20223;-70
2023/10/01 11:23:00;;;;;;;5.00;4.60;;;;;;;28.62;29.58;99690.75;5070145;28;20764;-69
2023/10/01 11:25:27;;;;;;;4.97;4.67;;;;;;;28.57;29.86;99684.59;5070319;28;20208;-68
2023/10/01 11:28:04;;;;;;;10.23;4.30;;;;;;;28.78;29.51;99678.34;5070362;28;20192;-69
2023/10/01 11:30:34;;;;;;;10.27;4.83;;;;;;;28.72;29.86;99679.59;5070901;28;20651;-68
2023/10/01 11:33:29;;;;;;;7.57;5.30;;;;;;;28.86;29.77;99680.34;5087803;28;20187;-66
2023/10/01 11:36:07;;;;;;;5.27;4.77;;;;;;;29.05;30.06;99677.44;5090699;28;20269;-68
2023/10/01 11:38:37;;;;;;;4.77;4.47;;;;;;;29.19;28.48;99667.22;5090150;28;20191;-67
2023/10/01 11:41:09;;;;;;;6.00;4.00;;;;;;;29.32;29.07;99671.81;5090069;28;20222;-66
2023/10/01 11:43:40;;;;;;;5.97;4.50;;;;;;;29.28;28.44;99670.81;5090517;28;20215;-66
2023/10/01 11:46:23;;;;;;;6.10;4.40;;;;;;;29.35;28.67;99673.91;5090215;28;20641;-66
2023/10/01 11:49:02;;;;;;;5.20;4.47;;;;;;;29.58;28.64;99674.69;5079319;28;20221;-67
2023/10/01 11:51:42;;;;;;;8.17;4.80;;;;;;;29.81;28.17;99668.81;5073813;28;20219;-69
2023/10/01 11:54:11;;;;;;;5.67;4.63;;;;;;;29.93;27.27;99655.28;5072702;28;20238;-70
2023/10/01 11:56:40;;;;;;;5.93;4.60;;;;;;;30.12;27.99;99655.00;5074051;28;20199;-70
2023/10/01 11:59:10;;;;;;;4.53;4.13;;;;;;;30.07;27.74;99656.00;5077336;28;20196;-73
2023/10/01 12:01:45;;;;;;;7.57;4.10;;;;;;;29.91;27.58;99651.25;5068625;28;20306;-68
2023/10/01 12:04:12;;;;;;;4.63;4.23;;;;;;;29.85;28.03;99644.34;5068432;28;20195;-68
2023/10/01 12:06:38;;;;;;;5.43;4.40;;;;;;;29.95;27.41;99638.53;5066215;28;20195;-65
2023/10/01 12:09:05;;;;;;;7.43;4.97;;;;;;;30.07;27.74;99634.06;5070755;28;20192;-66
2023/10/01 12:11:36;;;;;;;4.50;4.30;;;;;;;29.92;27.46;99641.94;5069282;28;20192;-65
2023/10/01 12:14:08;;;;;;;5.17;4.87;;;;;;;29.98;27.49;99638.72;5073234;28;20184;-65
2023/10/01 12:16:35;;;;;;;8.03;4.80;;;;;;;30.09;27.12;99629.06;5071525;28;20251;-70
2023/10/01 12:21:43;;;;;;;13.77;5.10;;;;;;;30.14;27.28;99618.00;5063971;28;20212;-66
2023/10/01 12:24:13;;;;;;;4.63;4.23;;;;;;;30.27;27.38;99627.19;5075333;28;20199;-69